KPTN/PTN METAR and TAF weather

Enter ICAO airport designator
Station Type Date Time Source
KPTN METAR 2020/09/22 07:56 UTC NOAA

KPTN 220756Z AUTO 08011KT 10SM OVC010 21/21 A3001 RMK AO2 RAB43E56 CIG 008V015 SLP161 T02110206 $


Station Type Date Time Source
KPTN Decoded METAR 2020/09/22 07:56 UTC NOAA

Patterson Memorial, LA, United States (KPTN) 29-43N 091-20W
Sep 22, 2020 - 03:56 AM EDT / 2020.09.22 0756 UTC
Wind: from the E (080 degrees) at 13 MPH (11 KT):0
Visibility: 10 mile(s):0
Sky conditions: overcast
Temperature: 70.0 F (21.1 C)
Dew Point: 69.1 F (20.6 C)
Relative Humidity: 96%
Pressure (altimeter): 30.01 in. Hg (1016 hPa)
ob: KPTN 220756Z AUTO 08011KT 10SM OVC010 21/21 A3001 RMK AO2 RAB43E56 CIG 008V015 SLP161 T02110206
cycle: 8

Station Type Date Time Source
KPTN TAF UTC NOAA

Error!

Example: see airport list